Alpena, Arkansas
Current Conditions -  °F | °C
As of 7:53 PM on Sunday 23 Nov 2014 (Local Time) from KHRO Reporting Station
Clear Clear  
Wind Chill: 59°   Ceiling: Unl
Heat Index: 59°   Visibility: 10mi
Dew Point: 54°   Wind: 6mph
Humidity: 83%   Direction: 210°SSW
Pressure: 29.33"   Gusts: NA
Location:  36.29°N, 93.29°W
Report Text: KHRO 240153Z AUTO 21005KT 10SM CLR 15/12 A2933 RMK AO2 LTG DSNT NE AND S SLP924 T01500122
Loading
Personal Weather Stations






























Interactive Weather Map New forecast layout! Learn more

10-Day Weather Forecast

Advertisements
Track Severe Weather on mobile